createdAt,value
2022-11-12T00:00:17.263Z,35.97
2022-11-12T00:00:47.378Z,35.95
2022-11-12T00:01:17.503Z,35.97
2022-11-12T00:01:47.645Z,36.05
2022-11-12T00:02:17.634Z,35.95
2022-11-12T00:02:47.746Z,35.97
2022-11-12T00:03:17.734Z,35.98
2022-11-12T00:03:47.849Z,35.95
2022-11-12T00:04:17.956Z,35.98
2022-11-12T00:04:48.068Z,35.96
2022-11-12T00:05:18.178Z,35.98
2022-11-12T00:05:48.297Z,35.97
2022-11-12T00:06:18.408Z,35.97
2022-11-12T00:06:48.551Z,35.91
2022-11-12T00:07:18.562Z,35.96
2022-11-12T00:07:48.551Z,35.95
2022-11-12T00:08:18.533Z,35.95
2022-11-12T00:08:48.756Z,35.94
2022-11-12T00:09:18.715Z,35.95
2022-11-12T00:09:48.824Z,36.01
2022-11-12T00:10:18.944Z,35.94
2022-11-12T00:10:49.058Z,35.95
2022-11-12T00:11:19.163Z,35.89
2022-11-12T00:11:49.278Z,35.97
2022-11-12T00:12:19.383Z,35.95
2022-11-12T00:12:49.511Z,35.91
2022-11-12T00:13:19.502Z,35.95
2022-11-12T00:13:49.615Z,35.93
2022-11-12T00:14:19.732Z,35.92
2022-11-12T00:14:49.845Z,35.98
2022-11-12T00:15:19.953Z,35.92
2022-11-12T00:15:50.064Z,35.95
2022-11-12T00:16:20.175Z,35.92
2022-11-12T00:16:50.285Z,35.92
2022-11-12T00:17:20.397Z,35.92
2022-11-12T00:17:50.506Z,35.93
2022-11-12T00:18:20.640Z,35.95
2022-11-12T00:18:50.624Z,35.95
2022-11-12T00:19:20.737Z,35.89
2022-11-12T00:19:50.852Z,35.92
2022-11-12T00:20:20.960Z,35.92
2022-11-12T00:20:51.069Z,35.96
2022-11-12T00:21:21.182Z,35.91
2022-11-12T00:21:51.290Z,35.89
2022-11-12T00:22:21.405Z,35.95
2022-11-12T00:22:51.521Z,35.95
2022-11-12T00:23:21.591Z,35.89
2022-11-12T00:23:51.780Z,35.95
2022-11-12T00:24:21.690Z,35.86
2022-11-12T00:24:51.760Z,35.89
2022-11-12T00:25:21.843Z,35.93
2022-11-12T00:25:51.907Z,35.92
2022-11-12T00:26:21.984Z,35.95
2022-11-12T00:26:52.057Z,35.91
2022-11-12T00:27:22.132Z,35.92
2022-11-12T00:27:52.201Z,35.92
2022-11-12T00:28:22.346Z,35.89
2022-11-12T00:28:52.300Z,35.93
2022-11-12T00:29:22.374Z,35.87
2022-11-12T00:29:52.450Z,35.89
2022-11-12T00:30:22.527Z,35.86
2022-11-12T00:30:52.599Z,35.92
2022-11-12T00:31:22.674Z,35.85
2022-11-12T00:31:52.750Z,35.86
2022-11-12T00:32:22.822Z,35.89
2022-11-12T00:32:52.913Z,35.92
2022-11-12T00:33:23.022Z,35.92
2022-11-12T00:33:53.128Z,35.89
2022-11-12T00:34:23.246Z,35.91
2022-11-12T00:34:53.351Z,35.83
2022-11-12T00:35:23.465Z,35.85
2022-11-12T00:35:53.574Z,35.88
2022-11-12T00:36:23.687Z,35.91
2022-11-12T00:36:53.801Z,35.79
2022-11-12T00:37:23.914Z,35.87
2022-11-12T00:37:54.036Z,35.87
2022-11-12T00:38:24.360Z,35.89
2022-11-12T00:38:54.053Z,35.82
2022-11-12T00:39:24.284Z,35.86
2022-11-12T00:39:54.229Z,35.89
2022-11-12T00:40:24.340Z,35.86
2022-11-12T00:40:54.453Z,35.83
2022-11-12T00:41:24.566Z,35.86
2022-11-12T00:41:54.676Z,35.86
2022-11-12T00:42:24.791Z,35.86
2022-11-12T00:42:54.913Z,35.83
2022-11-12T00:43:24.908Z,35.86
2022-11-12T00:43:55.010Z,35.87
2022-11-12T00:44:25.124Z,35.92
2022-11-12T00:44:55.219Z,35.87
2022-11-12T00:45:25.329Z,35.85
2022-11-12T00:45:55.439Z,35.83
2022-11-12T00:46:25.558Z,35.84
2022-11-12T00:46:55.672Z,35.89
2022-11-12T00:47:25.785Z,35.87
2022-11-12T00:47:55.910Z,35.84
2022-11-12T00:48:26.218Z,35.90
2022-11-12T00:48:55.962Z,35.91
2022-11-12T00:49:26.073Z,35.86
2022-11-12T00:49:56.188Z,35.92
2022-11-12T00:50:26.299Z,35.91
2022-11-12T00:50:56.412Z,35.92
2022-11-12T00:51:26.522Z,35.90
2022-11-12T00:51:56.630Z,35.89
2022-11-12T00:52:26.772Z,35.86
2022-11-12T00:52:56.760Z,35.89
2022-11-12T00:53:26.874Z,35.83
2022-11-12T00:53:56.866Z,35.87
2022-11-12T00:54:26.979Z,35.88
2022-11-12T00:54:56.923Z,35.83
2022-11-12T00:55:27.034Z,35.86
2022-11-12T00:55:57.143Z,35.87
2022-11-12T00:56:29.605Z,35.86
2022-11-12T00:56:57.269Z,35.91
2022-11-12T00:57:27.435Z,35.87
2022-11-12T00:57:57.420Z,35.85
2022-11-12T00:58:27.946Z,35.92
2022-11-12T00:58:57.533Z,35.83
2022-11-12T00:59:27.636Z,35.83
2022-11-12T00:59:57.747Z,35.82
2022-11-12T01:00:27.859Z,35.85
2022-11-12T01:00:58.076Z,35.89
2022-11-12T01:01:28.160Z,35.85
2022-11-12T01:01:58.149Z,35.83
2022-11-12T01:02:28.283Z,35.82
2022-11-12T01:02:58.269Z,35.82
2022-11-12T01:03:28.445Z,35.79
2022-11-12T01:03:58.496Z,35.86
2022-11-12T01:04:28.461Z,35.85
2022-11-12T01:04:58.571Z,35.79
2022-11-12T01:05:28.684Z,35.80
2022-11-12T01:05:58.799Z,35.76
2022-11-12T01:06:28.911Z,35.80
2022-11-12T01:06:59.102Z,35.83
2022-11-12T01:07:29.024Z,35.82
2022-11-12T01:07:59.134Z,35.82
2022-11-12T01:08:29.680Z,35.83
2022-11-12T01:08:59.348Z,35.82
2022-11-12T01:09:29.582Z,35.82
2022-11-12T01:09:59.530Z,35.82
2022-11-12T01:10:29.644Z,35.82
2022-11-12T01:10:59.761Z,35.79
2022-11-12T01:11:29.869Z,35.77
2022-11-12T01:11:59.983Z,35.82
2022-11-12T01:12:30.114Z,35.76
2022-11-12T01:13:00.105Z,35.79
2022-11-12T01:13:30.215Z,35.79
2022-11-12T01:14:00.325Z,35.76
2022-11-12T01:14:30.441Z,35.76
2022-11-12T01:15:00.555Z,35.72
2022-11-12T01:15:30.672Z,35.77
2022-11-12T01:16:00.669Z,35.78
2022-11-12T01:16:30.775Z,35.74
2022-11-12T01:17:00.893Z,35.73
2022-11-12T01:17:31.006Z,35.73
2022-11-12T01:18:01.116Z,35.73
2022-11-12T01:18:31.231Z,35.76
2022-11-12T01:19:01.340Z,35.74
2022-11-12T01:19:31.451Z,35.73
2022-11-12T01:20:01.570Z,35.75
2022-11-12T01:20:31.678Z,35.73
2022-11-12T01:21:01.799Z,35.73
2022-11-12T01:21:31.910Z,35.68
2022-11-12T01:22:02.016Z,35.68
2022-11-12T01:22:32.032Z,35.73
2022-11-12T01:23:02.139Z,35.76
2022-11-12T01:24:11.206Z,35.74
2022-11-12T01:24:41.393Z,35.78
2022-11-12T01:25:11.299Z,35.81
2022-11-12T01:25:41.372Z,35.73
2022-11-12T01:26:11.446Z,35.80
2022-11-12T01:26:41.518Z,35.76
2022-11-12T01:27:11.608Z,35.77
2022-11-12T01:27:41.682Z,35.78
2022-11-12T01:28:11.758Z,35.78
2022-11-12T01:28:41.829Z,35.79
2022-11-12T01:29:11.898Z,35.78
2022-11-12T01:29:41.972Z,35.77
2022-11-12T01:30:12.045Z,35.73
2022-11-12T01:30:42.111Z,35.78
2022-11-12T01:31:12.179Z,35.78
2022-11-12T01:31:42.252Z,35.74
2022-11-12T01:32:12.335Z,35.77
2022-11-12T01:32:42.403Z,35.75
2022-11-12T01:33:12.482Z,35.75
2022-11-12T01:33:42.550Z,35.75
2022-11-12T01:34:12.660Z,35.74
2022-11-12T01:34:42.768Z,35.78
2022-11-12T01:35:12.923Z,35.72
2022-11-12T01:35:42.906Z,35.71
2022-11-12T01:36:12.997Z,35.79
2022-11-12T01:36:43.105Z,35.72
2022-11-12T01:37:13.234Z,35.74
2022-11-12T01:37:43.216Z,35.71
2022-11-12T01:38:13.332Z,35.71
2022-11-12T01:38:43.438Z,35.74
2022-11-12T01:39:13.553Z,35.77
2022-11-12T01:39:43.785Z,35.72
2022-11-12T01:40:13.727Z,35.68
2022-11-12T01:40:43.836Z,35.69
2022-11-12T01:41:13.948Z,35.72
2022-11-12T01:41:44.058Z,35.72
2022-11-12T01:42:14.200Z,35.71
2022-11-12T01:42:44.187Z,35.71
2022-11-12T01:43:14.294Z,35.73
2022-11-12T01:43:44.404Z,35.65
2022-11-12T01:44:14.521Z,35.70
2022-11-12T01:44:44.638Z,35.73
2022-11-12T01:45:14.755Z,35.72
2022-11-12T01:45:44.864Z,35.66
2022-11-12T01:46:14.974Z,35.69
2022-11-12T01:46:45.082Z,35.72
2022-11-12T01:47:15.216Z,35.71
2022-11-12T01:47:45.197Z,35.71
2022-11-12T01:48:15.309Z,35.62
2022-11-12T01:48:45.420Z,35.71
2022-11-12T01:49:15.529Z,35.75
2022-11-12T01:49:51.452Z,35.67
2022-11-12T01:50:15.651Z,35.70
2022-11-12T01:50:45.766Z,35.68
2022-11-12T01:51:15.884Z,35.71
2022-11-12T01:51:45.986Z,35.66
2022-11-12T01:52:16.128Z,35.69
2022-11-12T01:52:46.105Z,35.68
2022-11-12T01:53:16.219Z,35.68
2022-11-12T01:53:46.329Z,35.68
2022-11-12T01:54:16.436Z,35.65
2022-11-12T01:54:46.670Z,35.68
2022-11-12T01:55:16.611Z,35.74
2022-11-12T01:55:46.726Z,35.66
2022-11-12T01:56:16.844Z,35.68
2022-11-12T01:56:46.962Z,35.64
2022-11-12T01:57:16.945Z,35.64
2022-11-12T01:57:47.063Z,35.70
2022-11-12T01:58:17.168Z,35.67
2022-11-12T01:58:47.276Z,35.67
2022-11-12T01:59:17.386Z,35.64
2022-11-12T01:59:47.502Z,35.61
2022-11-12T02:00:17.619Z,35.63
2022-11-12T02:00:47.750Z,35.66
2022-11-12T02:01:17.984Z,35.62
2022-11-12T02:01:47.919Z,35.64
2022-11-12T02:02:17.927Z,35.62
2022-11-12T02:02:47.910Z,35.61
2022-11-12T02:03:18.018Z,35.61
2022-11-12T02:03:48.125Z,35.67
2022-11-12T02:04:18.238Z,35.64
2022-11-12T02:04:48.348Z,35.62
2022-11-12T02:05:18.459Z,35.60
2022-11-12T02:05:48.567Z,35.59
2022-11-12T02:06:18.676Z,35.60
2022-11-12T02:06:48.832Z,35.61
2022-11-12T02:07:18.861Z,35.60
2022-11-12T02:07:48.833Z,35.68
2022-11-12T02:08:18.941Z,35.65
2022-11-12T02:08:49.045Z,35.65
2022-11-12T02:09:19.162Z,35.63
2022-11-12T02:09:49.385Z,35.56
2022-11-12T02:10:19.338Z,35.58
2022-11-12T02:10:49.448Z,35.58
2022-11-12T02:11:19.553Z,35.62
2022-11-12T02:11:49.719Z,35.60
2022-11-12T02:12:19.702Z,35.55
2022-11-12T02:12:49.819Z,35.62
2022-11-12T02:13:19.928Z,35.62
2022-11-12T02:13:50.035Z,35.61
2022-11-12T02:14:20.145Z,35.56
2022-11-12T02:14:50.256Z,35.58
2022-11-12T02:15:20.365Z,35.56
2022-11-12T02:15:50.474Z,35.58
2022-11-12T02:16:20.585Z,35.56
2022-11-12T02:16:50.714Z,35.53
2022-11-12T02:17:20.708Z,35.61
2022-11-12T02:17:50.815Z,35.60
2022-11-12T02:18:20.926Z,35.62
2022-11-12T02:18:51.039Z,35.58
2022-11-12T02:19:21.148Z,35.58
2022-11-12T02:19:51.265Z,35.56
2022-11-12T02:20:21.382Z,35.56
2022-11-12T02:20:51.486Z,35.61
2022-11-12T02:21:21.595Z,35.57
2022-11-12T02:21:51.734Z,35.62
2022-11-12T02:22:21.734Z,35.60
2022-11-12T02:22:51.717Z,35.56
2022-11-12T02:23:21.825Z,35.53
2022-11-12T02:23:51.924Z,35.56
2022-11-12T02:24:21.995Z,35.56
2022-11-12T02:24:52.065Z,35.57
2022-11-12T02:25:22.263Z,35.59
2022-11-12T02:25:52.166Z,35.56
2022-11-12T02:26:22.239Z,35.59
2022-11-12T02:26:52.334Z,35.53
2022-11-12T02:27:22.413Z,35.59
2022-11-12T02:27:52.486Z,35.55
2022-11-12T02:28:22.640Z,35.52
2022-11-12T02:28:52.613Z,35.53
2022-11-12T02:29:22.687Z,35.55
2022-11-12T02:29:52.759Z,35.55
2022-11-12T02:30:22.831Z,35.53
2022-11-12T02:30:52.902Z,35.56
2022-11-12T02:31:22.978Z,35.59
2022-11-12T02:31:53.050Z,35.53
2022-11-12T02:32:23.123Z,35.55
2022-11-12T02:32:53.200Z,35.58
2022-11-12T02:33:23.273Z,35.53
2022-11-12T02:33:53.367Z,35.55
2022-11-12T02:34:23.476Z,35.55
2022-11-12T02:34:53.589Z,35.55
2022-11-12T02:35:23.704Z,35.56
2022-11-12T02:35:53.820Z,35.52
2022-11-12T02:36:23.934Z,35.55
2022-11-12T02:36:54.047Z,35.57
2022-11-12T02:37:24.153Z,35.55
2022-11-12T02:37:54.271Z,35.56
2022-11-12T02:38:24.656Z,35.52
2022-11-12T02:38:54.455Z,35.52
2022-11-12T02:39:24.565Z,35.55
2022-11-12T02:39:54.675Z,35.49
2022-11-12T02:40:24.911Z,35.59
2022-11-12T02:40:54.902Z,35.53
2022-11-12T02:41:25.016Z,35.55
2022-11-12T02:41:55.130Z,35.50
2022-11-12T02:42:25.118Z,35.50
2022-11-12T02:42:55.231Z,35.56
2022-11-12T02:43:25.342Z,35.52
2022-11-12T02:43:55.455Z,35.50
2022-11-12T02:44:25.572Z,35.52
2022-11-12T02:44:55.681Z,35.49
2022-11-12T02:45:25.793Z,35.52
2022-11-12T02:45:55.911Z,35.52
2022-11-12T02:46:26.029Z,35.53
2022-11-12T02:46:56.141Z,35.51
2022-11-12T02:47:26.251Z,35.52
2022-11-12T02:47:56.364Z,35.50
2022-11-12T02:48:26.779Z,35.52
2022-11-12T02:48:56.548Z,35.50
2022-11-12T02:49:26.658Z,35.52
2022-11-12T02:49:56.778Z,35.50
2022-11-12T02:50:26.886Z,35.59
2022-11-12T02:50:56.995Z,35.52
2022-11-12T02:51:27.116Z,35.49
2022-11-12T02:51:57.111Z,35.56
2022-11-12T02:52:27.100Z,35.49
2022-11-12T02:52:57.212Z,35.53
2022-11-12T02:53:27.332Z,35.53
2022-11-12T02:53:57.442Z,35.54
2022-11-12T02:54:27.553Z,35.54
2022-11-12T02:54:57.670Z,35.51
2022-11-12T02:55:27.783Z,35.48
2022-11-12T02:55:57.731Z,35.56
2022-11-12T02:56:27.851Z,35.50
2022-11-12T02:56:57.964Z,35.52
2022-11-12T02:57:28.071Z,35.52
2022-11-12T02:57:58.185Z,35.44
2022-11-12T02:58:28.659Z,35.47
2022-11-12T02:58:58.360Z,35.53
2022-11-12T02:59:28.477Z,35.46
2022-11-12T02:59:58.595Z,35.54
2022-11-12T03:00:28.703Z,35.53
2022-11-12T03:00:58.896Z,35.53
2022-11-12T03:01:28.954Z,35.47
2022-11-12T03:01:58.938Z,35.49
2022-11-12T03:02:29.053Z,35.44
2022-11-12T03:02:59.461Z,35.49
2022-11-12T03:03:29.225Z,35.47
2022-11-12T03:03:59.333Z,35.52
2022-11-12T03:04:29.456Z,35.46
2022-11-12T03:04:59.445Z,35.49
2022-11-12T03:05:29.555Z,35.47
2022-11-12T03:05:59.673Z,35.50
2022-11-12T03:06:29.785Z,35.47
2022-11-12T03:06:59.953Z,35.53
2022-11-12T03:07:29.946Z,35.47
2022-11-12T03:08:00.074Z,35.46
2022-11-12T03:08:30.172Z,35.50
2022-11-12T03:09:00.286Z,35.50
2022-11-12T03:09:30.399Z,35.53
2022-11-12T03:10:00.512Z,35.46
2022-11-12T03:10:30.626Z,35.47
2022-11-12T03:11:00.857Z,35.48
2022-11-12T03:11:30.879Z,35.51
2022-11-12T03:12:00.869Z,35.54
2022-11-12T03:12:30.978Z,35.53
2022-11-12T03:13:01.091Z,35.54
2022-11-12T03:13:31.206Z,35.49
2022-11-12T03:14:01.326Z,35.50
2022-11-12T03:14:31.434Z,35.49
2022-11-12T03:15:01.561Z,35.54
2022-11-12T03:15:31.550Z,35.53
2022-11-12T03:16:01.667Z,35.51
2022-11-12T03:16:31.783Z,35.49
2022-11-12T03:17:01.890Z,35.47
2022-11-12T03:17:32.007Z,35.49
2022-11-12T03:18:02.120Z,35.43
2022-11-12T03:18:32.237Z,35.43
2022-11-12T03:19:02.667Z,35.49
2022-11-12T03:19:32.401Z,35.51
2022-11-12T03:20:02.516Z,35.47
2022-11-12T03:20:32.627Z,35.49
2022-11-12T03:21:02.736Z,35.43
2022-11-12T03:21:32.862Z,35.49
2022-11-12T03:22:02.975Z,35.47
2022-11-12T03:22:33.085Z,35.44
2022-11-12T03:23:03.199Z,35.41
2022-11-12T03:23:33.313Z,35.46
2022-11-12T03:24:03.393Z,35.44
2022-11-12T03:24:33.467Z,35.47
2022-11-12T03:25:03.538Z,35.46
2022-11-12T03:25:33.606Z,35.49
2022-11-12T03:26:03.796Z,35.44
2022-11-12T03:26:36.021Z,35.43
2022-11-12T03:27:03.809Z,35.43
2022-11-12T03:27:33.881Z,35.47
2022-11-12T03:28:03.959Z,35.45
2022-11-12T03:28:34.029Z,35.46
2022-11-12T03:29:04.101Z,35.43
2022-11-12T03:29:34.180Z,35.47
2022-11-12T03:30:04.246Z,35.44
2022-11-12T03:30:34.320Z,35.46
2022-11-12T03:31:04.394Z,35.43
2022-11-12T03:31:34.472Z,35.47
2022-11-12T03:32:04.548Z,35.44
2022-11-12T03:32:34.619Z,35.47
2022-11-12T03:33:04.699Z,35.44
2022-11-12T03:33:34.768Z,35.46
2022-11-12T03:34:04.871Z,35.46
2022-11-12T03:34:34.988Z,35.40
2022-11-12T03:35:05.099Z,35.46
2022-11-12T03:35:35.209Z,35.46
2022-11-12T03:36:05.327Z,35.44
2022-11-12T03:36:35.441Z,35.43
2022-11-12T03:37:05.554Z,35.46
2022-11-12T03:37:35.666Z,35.39
2022-11-12T03:38:05.783Z,35.43
2022-11-12T03:38:35.893Z,35.44
2022-11-12T03:39:06.003Z,35.43
2022-11-12T03:39:36.123Z,35.44
2022-11-12T03:40:06.233Z,35.39
2022-11-12T03:40:36.343Z,35.43
2022-11-12T03:41:06.573Z,35.41
2022-11-12T03:41:36.531Z,35.34
2022-11-12T03:42:06.518Z,35.41
2022-11-12T03:42:36.631Z,35.37
2022-11-12T03:43:06.738Z,35.40
2022-11-12T03:43:36.853Z,35.40
2022-11-12T03:44:06.964Z,35.44
2022-11-12T03:44:37.075Z,35.40
2022-11-12T03:45:07.192Z,35.40
2022-11-12T03:45:37.304Z,35.40
2022-11-12T03:46:07.438Z,35.34
2022-11-12T03:46:41.557Z,35.39
2022-11-12T03:47:07.439Z,35.41
2022-11-12T03:47:37.432Z,35.41
2022-11-12T03:48:07.538Z,35.41
2022-11-12T03:48:37.650Z,35.40
2022-11-12T03:49:07.762Z,35.38
2022-11-12T03:49:37.872Z,35.38
2022-11-12T03:50:07.992Z,35.35
2022-11-12T03:50:38.094Z,35.41
2022-11-12T03:51:08.237Z,35.37
2022-11-12T03:51:38.240Z,35.40
2022-11-12T03:52:08.218Z,35.40
2022-11-12T03:52:38.331Z,35.37
2022-11-12T03:53:08.442Z,35.37
2022-11-12T03:53:38.551Z,35.35
2022-11-12T03:54:08.668Z,35.37
2022-11-12T03:54:38.776Z,35.37
2022-11-12T03:55:08.888Z,35.39
2022-11-12T03:55:39.013Z,35.40
2022-11-12T03:56:09.237Z,35.35
2022-11-12T03:56:39.202Z,35.37
2022-11-12T03:57:09.192Z,35.37
2022-11-12T03:57:39.306Z,35.34
2022-11-12T03:58:09.417Z,35.38
2022-11-12T04:01:43.750Z,35.55
2022-11-12T04:02:13.825Z,35.57
2022-11-12T04:02:43.898Z,35.51
2022-11-12T04:03:52.915Z,35.57
2022-11-12T04:04:22.988Z,35.57
2022-11-12T04:04:53.063Z,35.59
2022-11-12T04:05:23.135Z,35.53
2022-11-12T04:05:53.207Z,35.49
2022-11-12T04:06:23.285Z,35.55
2022-11-12T04:06:53.397Z,35.56
2022-11-12T04:07:23.465Z,35.50
2022-11-12T04:07:53.542Z,35.52
2022-11-12T04:10:59.535Z,35.60
2022-11-12T04:11:29.724Z,35.66
2022-11-12T04:11:59.640Z,35.60
2022-11-12T04:12:29.713Z,35.60
2022-11-12T04:12:59.784Z,35.59
2022-11-12T04:13:29.869Z,35.54
2022-11-12T04:13:59.927Z,35.53
2022-11-12T04:14:30.007Z,35.53
2022-11-12T04:15:00.081Z,35.53
2022-11-12T04:15:30.154Z,35.53
2022-11-12T04:16:00.232Z,35.53
2022-11-12T04:16:30.317Z,35.47
2022-11-12T04:17:00.395Z,35.49
2022-11-12T04:17:30.468Z,35.48
2022-11-12T04:18:00.540Z,35.46
2022-11-12T04:18:30.615Z,35.45
2022-11-12T04:19:00.685Z,35.47
2022-11-12T04:19:30.771Z,35.43
2022-11-12T04:20:00.840Z,35.45
2022-11-12T04:20:30.914Z,35.44
2022-11-12T04:21:01.031Z,35.43
2022-11-12T04:21:31.065Z,35.40
2022-11-12T04:22:01.045Z,35.38
2022-11-12T04:22:31.163Z,35.40
2022-11-12T04:23:01.273Z,35.40
2022-11-12T04:23:31.386Z,35.35
2022-11-12T04:24:01.498Z,35.44
2022-11-12T04:24:31.608Z,35.39
2022-11-12T04:25:01.778Z,35.35
2022-11-12T04:25:31.730Z,35.39
2022-11-12T04:26:01.840Z,35.36
2022-11-12T04:26:31.958Z,35.33
2022-11-12T04:27:02.185Z,35.30
2022-11-12T04:27:32.146Z,35.33
2022-11-12T04:28:02.255Z,35.38
2022-11-12T04:28:32.363Z,35.36
2022-11-12T04:29:02.476Z,35.33
2022-11-12T04:29:37.227Z,35.35
2022-11-12T04:30:02.610Z,35.32
2022-11-12T04:30:32.712Z,35.34
2022-11-12T04:31:02.822Z,35.33
2022-11-12T04:31:32.940Z,35.32
2022-11-12T04:32:03.049Z,35.33
2022-11-12T04:32:33.164Z,35.26
2022-11-12T04:33:03.273Z,35.29
2022-11-12T04:33:33.387Z,35.33
2022-11-12T04:34:03.378Z,35.29
2022-11-12T04:34:33.519Z,35.33
2022-11-12T04:35:03.610Z,35.30
2022-11-12T04:35:33.603Z,35.29
2022-11-12T04:36:03.719Z,35.32
2022-11-12T04:36:33.832Z,35.29
2022-11-12T04:37:03.821Z,35.30
2022-11-12T04:37:33.931Z,35.32
2022-11-12T04:38:04.049Z,35.27
2022-11-12T04:38:34.160Z,35.29
2022-11-12T04:39:04.269Z,35.33
2022-11-12T04:39:34.388Z,35.32
2022-11-12T04:40:04.498Z,35.29
2022-11-12T04:40:34.610Z,35.31
2022-11-12T04:41:04.725Z,35.34
2022-11-12T04:41:34.839Z,35.31
2022-11-12T04:42:04.945Z,35.29
2022-11-12T04:42:34.892Z,35.29
2022-11-12T04:43:05.002Z,35.26
2022-11-12T04:43:35.113Z,35.29
2022-11-12T04:44:05.224Z,35.25
2022-11-12T04:44:35.340Z,35.29
2022-11-12T04:45:05.331Z,35.29
2022-11-12T04:45:35.436Z,35.25
2022-11-12T04:46:05.558Z,35.20
2022-11-12T04:46:35.675Z,35.30
2022-11-12T04:47:05.664Z,35.27
2022-11-12T04:47:35.781Z,35.33
2022-11-12T04:48:05.888Z,35.26
2022-11-12T04:48:36.007Z,35.23
2022-11-12T04:49:06.118Z,35.29
2022-11-12T04:49:36.229Z,35.28
2022-11-12T04:50:06.346Z,35.28
2022-11-12T04:50:36.457Z,35.32
2022-11-12T04:51:06.571Z,35.28
2022-11-12T04:51:36.748Z,35.27
2022-11-12T04:52:06.730Z,35.22
2022-11-12T04:52:36.842Z,35.20
2022-11-12T04:53:06.956Z,35.28
2022-11-12T04:53:37.063Z,35.28
2022-11-12T04:54:07.174Z,35.22
2022-11-12T04:54:37.285Z,35.20
2022-11-12T04:55:07.397Z,35.26
2022-11-12T04:55:37.511Z,35.20
2022-11-12T04:56:07.618Z,35.23
2022-11-12T04:56:37.741Z,35.22
2022-11-12T04:57:07.970Z,35.25
2022-11-12T04:57:37.918Z,35.25
2022-11-12T04:58:08.033Z,35.22
2022-11-12T04:58:38.143Z,35.25
2022-11-12T04:59:08.254Z,35.19
2022-11-12T04:59:38.365Z,35.19
2022-11-12T05:00:08.476Z,35.23
2022-11-12T05:00:38.593Z,35.20
2022-11-12T05:01:08.742Z,35.23
2022-11-12T05:01:38.798Z,35.23
2022-11-12T05:02:08.825Z,35.22
2022-11-12T05:02:38.936Z,35.26
2022-11-12T05:03:09.053Z,35.24
2022-11-12T05:03:39.162Z,35.22
2022-11-12T05:04:09.272Z,35.19
2022-11-12T05:04:39.388Z,35.25
2022-11-12T05:05:09.493Z,35.16
2022-11-12T05:05:39.604Z,35.17
2022-11-12T05:06:09.715Z,35.20
2022-11-12T05:06:39.896Z,35.19
2022-11-12T05:07:09.942Z,35.26
2022-11-12T05:07:39.910Z,35.20
2022-11-12T05:08:10.027Z,35.26
2022-11-12T05:08:40.139Z,35.26
2022-11-12T05:09:10.240Z,35.20
2022-11-12T05:09:40.385Z,35.20
2022-11-12T05:10:10.368Z,35.20
2022-11-12T05:10:40.465Z,35.20
2022-11-12T05:11:13.005Z,35.21
2022-11-12T05:11:40.650Z,35.19
2022-11-12T05:12:10.720Z,35.16
2022-11-12T05:12:40.910Z,35.20
2022-11-12T05:13:10.819Z,35.20
2022-11-12T05:13:40.896Z,35.19
2022-11-12T05:14:10.966Z,35.17
2022-11-12T05:14:41.043Z,35.16
2022-11-12T05:15:11.137Z,35.17
2022-11-12T05:15:41.223Z,35.20
2022-11-12T05:16:11.329Z,35.20
2022-11-12T05:16:41.403Z,35.20
2022-11-12T05:17:11.478Z,35.20
2022-11-12T05:17:41.559Z,35.19
2022-11-12T05:18:11.678Z,35.16
2022-11-12T05:18:41.628Z,35.17
2022-11-12T05:19:11.697Z,35.17
2022-11-12T05:19:41.774Z,35.18
2022-11-12T05:20:11.848Z,35.24
2022-11-12T05:20:41.944Z,35.19
2022-11-12T05:21:12.055Z,35.19
2022-11-12T05:21:43.699Z,35.17
2022-11-12T05:22:33.325Z,35.21
2022-11-12T05:22:47.861Z,35.21
2022-11-12T05:23:12.211Z,35.26
2022-11-12T05:23:42.320Z,35.23
2022-11-12T05:24:27.754Z,35.14
2022-11-12T05:24:42.897Z,35.21
2022-11-12T05:25:12.455Z,35.23
2022-11-12T05:25:42.568Z,35.16
2022-11-12T05:26:12.686Z,35.20
2022-11-12T05:26:42.794Z,35.24
2022-11-12T05:27:12.913Z,35.12
2022-11-12T05:27:43.048Z,35.14
2022-11-12T05:28:13.155Z,35.14
2022-11-12T05:28:43.101Z,35.17
2022-11-12T05:29:13.234Z,35.15
2022-11-12T05:29:43.220Z,35.14
2022-11-12T05:30:13.357Z,35.15
2022-11-12T05:30:43.381Z,35.21
2022-11-12T05:31:13.337Z,35.21
2022-11-12T05:31:43.451Z,35.20
2022-11-12T05:32:13.437Z,35.18
2022-11-12T05:32:43.555Z,35.20
2022-11-12T05:33:13.660Z,35.20
2022-11-12T05:33:43.777Z,35.24
2022-11-12T05:34:15.544Z,35.20
2022-11-12T05:34:43.942Z,35.22
2022-11-12T05:35:14.066Z,35.18
2022-11-12T05:35:44.161Z,35.14
2022-11-12T05:36:14.281Z,35.23
2022-11-12T05:36:44.403Z,35.21
2022-11-12T05:37:14.389Z,35.18
2022-11-12T05:37:44.502Z,35.23
2022-11-12T05:38:14.618Z,35.17
2022-11-12T05:38:44.728Z,35.20
2022-11-12T05:39:14.844Z,35.17
2022-11-12T05:39:44.951Z,35.23
2022-11-12T05:40:15.069Z,35.18
2022-11-12T05:40:45.178Z,35.17
2022-11-12T05:41:19.893Z,35.17
2022-11-12T05:42:11.237Z,35.14
2022-11-12T05:42:15.369Z,35.18
2022-11-12T05:42:45.337Z,35.18
2022-11-12T05:43:15.566Z,35.17
2022-11-12T05:43:45.512Z,35.17
2022-11-12T05:44:15.622Z,35.16
2022-11-12T05:44:45.726Z,35.18
2022-11-12T05:45:15.846Z,35.19
2022-11-12T05:45:45.952Z,35.16
2022-11-12T05:46:16.068Z,35.15
2022-11-12T05:46:46.058Z,35.17
2022-11-12T05:47:16.168Z,35.14
2022-11-12T05:47:46.286Z,35.16
2022-11-12T05:48:21.488Z,35.17
2022-11-12T05:48:46.410Z,35.17
2022-11-12T05:49:16.524Z,35.17
2022-11-12T05:49:46.636Z,35.19
2022-11-12T05:50:16.748Z,35.13
2022-11-12T05:51:11.431Z,35.17
2022-11-12T05:51:16.879Z,35.14
2022-11-12T05:51:46.877Z,35.17
2022-11-12T05:52:16.866Z,35.14
2022-11-12T05:52:46.985Z,35.13
2022-11-12T05:53:17.090Z,35.14
2022-11-12T05:53:47.204Z,35.13
2022-11-12T05:54:17.315Z,35.13
2022-11-12T05:54:47.425Z,35.10
2022-11-12T05:55:17.538Z,35.16
2022-11-12T05:55:47.651Z,35.11
2022-11-12T05:56:17.761Z,35.13
2022-11-12T05:56:47.874Z,35.08
2022-11-12T05:57:17.988Z,35.03
2022-11-12T05:57:48.104Z,35.08
2022-11-12T05:58:18.334Z,35.06
2022-11-12T05:58:48.281Z,35.07
2022-11-12T05:59:18.435Z,35.10
2022-11-12T05:59:48.419Z,35.08
2022-11-12T06:00:18.532Z,35.10
2022-11-12T06:00:48.640Z,35.10
2022-11-12T06:01:18.758Z,35.08
2022-11-12T06:01:48.869Z,35.07
2022-11-12T06:02:19.050Z,35.10
2022-11-12T06:02:49.097Z,35.10
2022-11-12T06:03:19.087Z,35.10
2022-11-12T06:03:49.206Z,35.04
2022-11-12T06:04:19.318Z,35.08
2022-11-12T06:04:49.430Z,35.08
2022-11-12T06:05:19.539Z,35.07
2022-11-12T06:05:49.654Z,35.10
2022-11-12T06:06:19.786Z,35.10
2022-11-12T06:06:49.796Z,35.07
2022-11-12T06:07:19.876Z,35.04
2022-11-12T06:07:49.856Z,35.04
2022-11-12T06:08:19.968Z,35.04
2022-11-12T06:08:50.080Z,35.04
2022-11-12T06:09:20.187Z,35.04
2022-11-12T06:09:50.247Z,34.98
2022-11-12T06:10:20.877Z,35.04
2022-11-12T06:10:50.463Z,35.01
2022-11-12T06:11:20.546Z,35.03
2022-11-12T06:11:50.616Z,35.03
2022-11-12T06:12:20.691Z,35.04
2022-11-12T06:12:50.766Z,35.04
2022-11-12T06:13:20.985Z,35.04
2022-11-12T06:13:50.904Z,35.07
2022-11-12T06:14:20.971Z,35.04
2022-11-12T06:14:51.045Z,35.03
2022-11-12T06:15:21.121Z,35.01
2022-11-12T06:15:51.192Z,35.04
2022-11-12T06:16:21.266Z,35.07
2022-11-12T06:16:51.338Z,35.01
2022-11-12T06:17:21.426Z,35.02
2022-11-12T06:17:51.501Z,35.04
2022-11-12T06:18:21.577Z,35.04
2022-11-12T06:18:51.649Z,35.01
2022-11-12T06:19:21.720Z,35.05
2022-11-12T06:19:51.791Z,35.01
2022-11-12T06:20:21.867Z,35.02
2022-11-12T06:20:51.967Z,34.99
2022-11-12T06:21:22.094Z,35.05
2022-11-12T06:21:52.197Z,35.04
2022-11-12T06:22:22.196Z,35.04
2022-11-12T06:22:52.305Z,35.03
2022-11-12T06:23:22.417Z,35.01
2022-11-12T06:23:52.534Z,34.99
2022-11-12T06:24:22.649Z,34.99
2022-11-12T06:24:52.759Z,34.99
2022-11-12T06:25:22.875Z,35.02
2022-11-12T06:25:52.980Z,35.05
2022-11-12T06:26:23.100Z,35.02
2022-11-12T06:26:53.209Z,34.93
2022-11-12T06:27:23.321Z,35.05
2022-11-12T06:27:53.435Z,35.01
2022-11-12T06:28:23.913Z,35.02
2022-11-12T06:28:53.681Z,35.01
2022-11-12T06:29:23.660Z,35.04
2022-11-12T06:29:53.774Z,34.98
2022-11-12T06:30:25.830Z,35.06
2022-11-12T06:30:53.933Z,35.01
2022-11-12T06:31:24.049Z,34.97
2022-11-12T06:31:54.162Z,35.02
2022-11-12T06:32:24.275Z,35.04
2022-11-12T06:32:54.380Z,35.04
2022-11-12T06:33:24.497Z,34.97
2022-11-12T06:33:54.612Z,34.97
2022-11-12T06:34:24.729Z,35.01